Time;durP1;ratioP1;P1;durP2;ratioP2;P2;SDS_P1;SDS_P2;PMS_P1;PMS_P2;Temp;Humidity;BMP_temperature;BMP_pressure;BME280_temperature;BME280_humidity;BME280_pressure;Samples;Min_cycle;Max_cycle;Signal;HPM_P1;HPM_P2
2022/03/13 00:01:50;;;;;;;20.42;13.63;;;12.30;99.90;;;;;;5040673;28;20088;-76
2022/03/13 00:04:16;;;;;;;25.23;14.63;;;12.20;99.90;;;;;;5045309;28;20107;-76
2022/03/13 00:06:43;;;;;;;21.58;13.45;;;12.30;99.90;;;;;;5046815;28;20029;-75
2022/03/13 00:09:13;;;;;;;20.00;13.10;;;12.20;99.90;;;;;;5040591;28;20455;-75
2022/03/13 00:11:39;;;;;;;21.70;14.00;;;12.10;99.90;;;;;;5026142;28;20025;-75
2022/03/13 00:14:10;;;;;;;21.13;13.88;;;12.20;99.90;;;;;;5052800;28;20108;-76
2022/03/13 00:16:36;;;;;;;21.35;14.85;;;12.30;99.90;;;;;;5043972;28;20152;-76
2022/03/13 00:19:01;;;;;;;19.45;13.60;;;12.30;99.90;;;;;;5041582;28;20112;-76
2022/03/13 00:21:27;;;;;;;21.95;14.50;;;12.30;99.90;;;;;;5040215;28;20025;-76
2022/03/13 00:23:54;;;;;;;18.80;13.98;;;12.20;99.90;;;;;;5041250;28;20026;-76
2022/03/13 00:26:19;;;;;;;19.80;13.60;;;12.20;99.90;;;;;;5034966;28;20454;-76
2022/03/13 00:28:45;;;;;;;19.17;13.52;;;12.10;99.90;;;;;;5048493;28;20098;-76
2022/03/13 00:31:11;;;;;;;20.33;13.25;;;12.10;99.90;;;;;;5039512;28;20025;-77
2022/03/13 00:33:37;;;;;;;18.00;13.85;;;12.10;99.90;;;;;;5039928;28;20032;-76
2022/03/13 00:36:03;;;;;;;19.13;13.45;;;12.10;99.90;;;;;;5041656;28;20034;-76
2022/03/13 00:38:29;;;;;;;18.90;14.00;;;12.00;99.90;;;;;;5035730;28;20033;-76
2022/03/13 00:40:57;;;;;;;19.48;14.20;;;12.00;99.90;;;;;;5049032;28;20055;-76
2022/03/13 00:43:23;;;;;;;18.95;13.73;;;12.00;99.90;;;;;;5024779;28;20040;-76
2022/03/13 00:45:50;;;;;;;20.40;13.73;;;12.20;99.90;;;;;;5035792;28;20021;-76
2022/03/13 00:48:16;;;;;;;20.70;13.35;;;12.20;99.90;;;;;;5036018;28;20489;-76
2022/03/13 00:50:42;;;;;;;21.77;13.18;;;12.10;99.90;;;;;;5048601;28;20035;-76
2022/03/13 00:53:08;;;;;;;20.88;13.63;;;12.20;99.90;;;;;;5035646;28;20355;-76
2022/03/13 00:55:34;;;;;;;18.77;13.38;;;12.10;99.90;;;;;;5039583;28;20021;-76
2022/03/13 00:58:00;;;;;;;19.48;14.10;;;12.10;99.90;;;;;;5042600;28;20108;-76
2022/03/13 01:00:26;;;;;;;18.92;13.65;;;12.10;99.90;;;;;;5046510;28;20100;-76
2022/03/13 01:02:52;;;;;;;18.35;13.35;;;12.10;99.90;;;;;;5039872;28;20124;-76
2022/03/13 01:05:25;;;;;;;20.67;14.88;;;12.10;99.90;;;;;;5043947;28;20129;-76
2022/03/13 01:07:56;;;;;;;19.00;12.43;;;12.10;99.90;;;;;;5037320;28;20112;-76
2022/03/13 01:10:22;;;;;;;16.70;12.93;;;12.00;99.90;;;;;;5047039;28;20021;-76
2022/03/13 01:12:49;;;;;;;18.17;13.07;;;12.00;99.90;;;;;;5041545;28;20474;-77
2022/03/13 01:15:16;;;;;;;20.00;12.88;;;11.90;99.90;;;;;;5046297;28;20032;-76
2022/03/13 01:17:43;;;;;;;20.73;14.15;;;11.90;99.90;;;;;;5040084;28;20370;-76
2022/03/13 01:20:21;;;;;;;17.02;12.50;;;11.90;99.90;;;;;;5029792;28;20033;-76
2022/03/13 01:22:47;;;;;;;17.38;11.05;;;11.80;99.90;;;;;;5039854;28;20041;-76
2022/03/13 01:25:13;;;;;;;19.33;12.00;;;11.90;99.90;;;;;;5033322;28;20025;-76
2022/03/13 01:27:39;;;;;;;21.27;12.15;;;11.80;99.90;;;;;;5036504;28;20120;-76
2022/03/13 01:30:06;;;;;;;15.80;11.65;;;11.80;99.90;;;;;;5040476;28;20025;-76
2022/03/13 01:32:33;;;;;;;16.65;12.07;;;11.80;99.90;;;;;;5041209;28;20033;-76
2022/03/13 01:34:59;;;;;;;17.95;12.27;;;11.80;99.90;;;;;;5042076;28;20029;-76
2022/03/13 01:37:35;;;;;;;17.67;11.10;;;11.70;99.90;;;;;;5046482;28;20465;-76
2022/03/13 01:40:10;;;;;;;15.95;11.40;;;11.70;99.90;;;;;;5045342;28;20469;-76
2022/03/13 01:42:40;;;;;;;15.13;11.55;;;11.80;99.90;;;;;;5042066;28;20094;-76
2022/03/13 01:45:10;;;;;;;15.93;12.45;;;11.60;99.90;;;;;;5044893;28;20013;-76
2022/03/13 01:47:36;;;;;;;16.13;10.63;;;11.60;99.90;;;;;;5043883;28;20466;-76
2022/03/13 01:50:03;;;;;;;14.82;11.10;;;11.40;99.90;;;;;;5040322;28;20147;-76
2022/03/13 01:52:29;;;;;;;15.25;11.05;;;11.40;99.90;;;;;;5044659;28;20384;-76
2022/03/13 01:54:56;;;;;;;17.55;12.45;;;11.30;99.90;;;;;;5032971;28;20455;-76
2022/03/13 01:57:23;;;;;;;18.88;11.55;;;11.30;99.90;;;;;;5042311;28;20021;-76
2022/03/13 01:59:52;;;;;;;15.55;11.65;;;11.40;99.90;;;;;;5038062;28;20035;-76
2022/03/13 02:02:19;;;;;;;17.33;10.50;;;11.40;99.90;;;;;;5046133;28;20052;-76
2022/03/13 02:04:51;;;;;;;16.88;12.00;;;11.30;99.90;;;;;;5048123;28;20039;-76
2022/03/13 02:07:17;;;;;;;15.38;11.02;;;11.30;99.90;;;;;;5035806;28;20489;-76
2022/03/13 02:09:43;;;;;;;18.42;12.55;;;11.40;99.90;;;;;;5037163;28;20052;-76
2022/03/13 02:12:09;;;;;;;18.55;13.80;;;11.50;99.90;;;;;;5047161;28;20019;-76
2022/03/13 02:14:35;;;;;;;19.10;14.02;;;11.50;99.90;;;;;;5046450;28;20024;-76
2022/03/13 02:17:01;;;;;;;21.80;15.25;;;11.40;99.90;;;;;;5022651;28;20009;-75
2022/03/13 02:19:26;;;;;;;20.35;13.98;;;11.40;99.90;;;;;;5035897;28;20465;-75
2022/03/13 02:21:53;;;;;;;20.48;13.82;;;11.40;99.90;;;;;;5044033;28;20111;-76
2022/03/13 02:24:28;;;;;;;21.17;14.90;;;11.40;99.90;;;;;;5037086;28;20044;-76
2022/03/13 02:27:05;;;;;;;20.67;14.70;;;11.40;99.90;;;;;;5037526;28;20391;-76
2022/03/13 02:29:31;;;;;;;20.45;14.52;;;11.50;99.90;;;;;;5038941;28;20037;-76
2022/03/13 02:32:00;;;;;;;23.70;16.25;;;11.60;99.90;;;;;;5044604;28;20100;-76
2022/03/13 02:34:27;;;;;;;21.58;15.70;;;11.60;99.90;;;;;;5035438;28;20032;-75
2022/03/13 02:37:03;;;;;;;22.85;15.25;;;11.50;99.90;;;;;;5028046;28;20173;-76
2022/03/13 02:39:34;;;;;;;23.20;15.43;;;11.50;99.90;;;;;;5036420;28;20458;-75
2022/03/13 02:42:00;;;;;;;21.50;15.55;;;11.60;99.90;;;;;;5045252;28;20037;-76
2022/03/13 02:44:25;;;;;;;20.55;15.38;;;11.60;99.90;;;;;;5037078;28;20025;-76
2022/03/13 02:46:53;;;;;;;21.02;15.80;;;11.70;99.90;;;;;;5038439;28;20614;-75
2022/03/13 02:49:25;;;;;;;27.65;17.23;;;11.70;99.90;;;;;;5031779;28;20513;-75
2022/03/13 02:51:53;;;;;;;23.70;16.45;;;11.70;99.90;;;;;;5047744;28;20096;-76
2022/03/13 02:54:19;;;;;;;22.67;15.70;;;11.60;99.90;;;;;;5035511;28;20036;-75
2022/03/13 02:56:45;;;;;;;23.00;17.05;;;11.70;99.90;;;;;;5039593;28;20406;-76
2022/03/13 02:59:12;;;;;;;27.45;18.05;;;11.60;99.90;;;;;;5038051;28;20488;-75
2022/03/13 03:01:38;;;;;;;25.83;18.73;;;11.50;99.90;;;;;;5043096;28;20464;-76
2022/03/13 03:04:04;;;;;;;30.15;20.40;;;11.50;99.90;;;;;;5046533;28;20044;-76
2022/03/13 03:06:31;;;;;;;25.05;18.55;;;11.30;99.90;;;;;;5037573;28;20140;-76
2022/03/13 03:08:57;;;;;;;26.25;17.25;;;11.30;99.90;;;;;;5035962;28;20033;-76
2022/03/13 03:11:23;;;;;;;26.70;18.00;;;11.30;99.90;;;;;;5042151;28;20022;-76
2022/03/13 03:13:49;;;;;;;25.90;18.27;;;11.30;99.90;;;;;;5039195;28;20536;-76
2022/03/13 03:16:14;;;;;;;29.45;19.23;;;11.40;99.90;;;;;;5034255;28;20083;-76
2022/03/13 03:18:40;;;;;;;27.27;18.52;;;11.50;99.90;;;;;;5043546;28;20017;-76
2022/03/13 03:21:06;;;;;;;27.88;19.80;;;11.50;99.90;;;;;;5041611;28;20065;-76
2022/03/13 03:23:32;;;;;;;30.05;20.00;;;11.50;99.90;;;;;;5040414;28;20446;-76
2022/03/13 03:25:57;;;;;;;36.42;21.05;;;11.50;99.90;;;;;;5043629;28;20053;-76
2022/03/13 03:28:26;;;;;;;32.17;21.95;;;11.50;99.90;;;;;;5038947;28;20025;-75
2022/03/13 03:30:52;;;;;;;33.03;21.70;;;11.50;99.90;;;;;;5038279;28;20095;-76
2022/03/13 03:33:18;;;;;;;30.90;20.58;;;11.40;99.90;;;;;;5040591;28;20025;-75
2022/03/13 03:35:43;;;;;;;25.52;17.63;;;11.30;99.90;;;;;;5033963;28;20217;-76
2022/03/13 03:38:11;;;;;;;28.65;19.05;;;11.20;99.90;;;;;;5042714;28;20114;-76
2022/03/13 03:40:37;;;;;;;30.08;21.17;;;11.10;99.90;;;;;;5048649;28;20064;-76
2022/03/13 03:43:05;;;;;;;32.97;22.88;;;11.20;99.90;;;;;;5048678;28;20065;-76
2022/03/13 03:45:31;;;;;;;28.65;20.05;;;11.10;99.90;;;;;;5038188;28;20507;-76
2022/03/13 03:47:57;;;;;;;30.85;20.67;;;11.20;99.90;;;;;;5024581;28;20039;-76
2022/03/13 03:50:23;;;;;;;31.83;20.88;;;11.20;99.90;;;;;;5032380;28;20048;-76
2022/03/13 03:52:54;;;;;;;34.05;21.05;;;11.10;99.90;;;;;;5040657;28;20029;-77
2022/03/13 03:55:20;;;;;;;30.90;21.08;;;11.10;99.90;;;;;;5041915;28;20105;-76
2022/03/13 03:57:46;;;;;;;34.70;21.48;;;11.00;99.90;;;;;;5023692;28;20148;-76
2022/03/13 04:00:12;;;;;;;28.85;20.48;;;11.10;99.90;;;;;;5045995;28;20418;-77
2022/03/13 04:02:38;;;;;;;29.23;19.48;;;11.10;99.90;;;;;;5043334;28;20119;-76
2022/03/13 04:05:05;;;;;;;32.28;20.83;;;11.10;99.90;;;;;;5036283;28;20036;-76
2022/03/13 04:07:31;;;;;;;32.60;21.30;;;11.00;99.90;;;;;;5044781;28;20026;-76
2022/03/13 04:09:57;;;;;;;33.53;21.15;;;11.00;99.90;;;;;;5046461;28;20453;-76
2022/03/13 04:12:25;;;;;;;32.92;21.25;;;11.00;99.90;;;;;;5036518;28;20033;-75
2022/03/13 04:14:52;;;;;;;30.30;21.50;;;10.90;99.90;;;;;;5035760;28;20028;-76
2022/03/13 04:17:17;;;;;;;33.67;22.73;;;10.90;99.90;;;;;;5042440;28;20059;-76
2022/03/13 04:19:43;;;;;;;30.83;21.25;;;10.90;99.90;;;;;;5045114;28;20462;-77
2022/03/13 04:22:08;;;;;;;29.65;20.83;;;11.00;99.90;;;;;;5039667;28;20033;-76
2022/03/13 04:24:34;;;;;;;34.28;18.85;;;11.00;99.90;;;;;;5039374;28;20017;-76
2022/03/13 04:27:00;;;;;;;28.20;19.15;;;10.90;99.90;;;;;;5036142;28;20021;-76
2022/03/13 04:29:26;;;;;;;29.10;19.77;;;10.80;99.90;;;;;;5040005;28;20017;-76
2022/03/13 04:31:53;;;;;;;28.40;19.65;;;10.90;99.90;;;;;;5040391;28;20410;-76
2022/03/13 04:34:20;;;;;;;29.02;19.33;;;10.80;99.90;;;;;;5045235;28;20029;-76
2022/03/13 04:36:46;;;;;;;29.67;19.35;;;10.70;99.90;;;;;;5037148;28;20033;-76
2022/03/13 04:39:12;;;;;;;31.63;20.10;;;10.80;99.90;;;;;;5045415;28;20029;-76
2022/03/13 04:41:38;;;;;;;32.55;20.63;;;10.80;99.90;;;;;;5043945;28;20024;-76
2022/03/13 04:44:05;;;;;;;31.92;19.65;;;10.80;99.90;;;;;;5051257;28;20104;-76
2022/03/13 04:46:31;;;;;;;35.80;22.02;;;10.70;99.90;;;;;;5040103;28;20113;-76
2022/03/13 04:48:57;;;;;;;32.42;23.42;;;10.60;99.90;;;;;;5042358;28;20107;-76
2022/03/13 04:51:23;;;;;;;35.45;22.73;;;10.50;99.90;;;;;;5047150;28;20022;-76
2022/03/13 04:53:49;;;;;;;34.97;22.55;;;10.50;99.90;;;;;;5040820;28;20064;-76
2022/03/13 04:56:14;;;;;;;32.08;20.90;;;10.60;99.90;;;;;;5044773;28;20589;-76
2022/03/13 04:58:40;;;;;;;33.28;22.63;;;10.60;99.90;;;;;;5045649;28;20025;-75
2022/03/13 05:01:05;;;;;;;31.25;22.00;;;10.60;99.90;;;;;;5034571;28;20021;-76
2022/03/13 05:03:33;;;;;;;35.35;21.10;;;10.60;99.90;;;;;;5041692;28;20045;-76
2022/03/13 05:05:59;;;;;;;31.25;20.80;;;10.70;99.90;;;;;;5041923;28;20017;-76
2022/03/13 05:08:26;;;;;;;32.78;20.63;;;10.70;99.90;;;;;;5035247;28;20026;-76
2022/03/13 05:10:52;;;;;;;29.70;20.77;;;10.70;99.90;;;;;;5044198;28;20025;-76
2022/03/13 05:13:18;;;;;;;28.48;19.17;;;10.70;99.90;;;;;;5029185;28;20025;-76
2022/03/13 05:15:45;;;;;;;28.98;18.88;;;10.50;99.90;;;;;;5037457;28;20582;-76
2022/03/13 05:18:12;;;;;;;32.22;19.25;;;10.50;99.90;;;;;;5045244;28;20489;-76
2022/03/13 05:20:38;;;;;;;31.73;19.23;;;10.40;99.90;;;;;;5041528;28;20033;-75
2022/03/13 05:23:05;;;;;;;30.83;19.65;;;10.40;99.90;;;;;;5039652;28;20122;-75
2022/03/13 05:25:32;;;;;;;27.20;20.55;;;10.40;99.90;;;;;;5035201;28;20028;-75
2022/03/13 05:28:02;;;;;;;31.38;21.58;;;10.40;99.90;;;;;;5048045;28;20025;-75
2022/03/13 05:30:28;;;;;;;30.42;20.77;;;10.50;99.90;;;;;;5036701;28;20018;-75
2022/03/13 05:32:55;;;;;;;29.55;19.63;;;10.50;99.90;;;;;;5039543;28;20029;-76
2022/03/13 05:35:20;;;;;;;31.58;19.85;;;10.50;99.90;;;;;;5041207;28;20029;-76
2022/03/13 05:37:46;;;;;;;28.65;18.98;;;10.50;99.90;;;;;;5032767;28;20109;-75
2022/03/13 05:40:14;;;;;;;28.95;17.83;;;10.60;99.90;;;;;;5042243;28;20364;-75
2022/03/13 05:42:45;;;;;;;30.10;19.38;;;10.50;99.90;;;;;;5033390;28;20044;-75
2022/03/13 05:45:13;;;;;;;27.73;18.27;;;10.50;99.90;;;;;;5040132;28;20469;-75
2022/03/13 05:47:45;;;;;;;24.08;17.75;;;10.50;99.90;;;;;;5041770;28;20059;-76
2022/03/13 05:50:12;;;;;;;26.48;18.73;;;10.40;99.90;;;;;;5033908;28;20029;-75
2022/03/13 05:52:38;;;;;;;25.85;17.90;;;10.40;99.90;;;;;;5030044;28;20100;-75
2022/03/13 05:55:05;;;;;;;25.15;18.15;;;10.30;99.90;;;;;;5043086;28;20103;-75
2022/03/13 05:57:31;;;;;;;31.50;18.27;;;10.30;99.90;;;;;;5050077;28;20067;-75
2022/03/13 05:59:56;;;;;;;28.77;18.63;;;10.30;99.90;;;;;;5038485;28;20029;-76
2022/03/13 06:02:22;;;;;;;24.58;16.33;;;10.30;99.90;;;;;;5039791;28;20079;-76
2022/03/13 06:04:48;;;;;;;31.75;19.98;;;10.40;99.90;;;;;;5033960;28;20466;-76
2022/03/13 06:07:13;;;;;;;30.30;17.77;;;10.30;99.90;;;;;;5037931;28;20052;-76
2022/03/13 06:09:39;;;;;;;26.35;17.98;;;10.40;99.90;;;;;;5037707;28;20029;-76
2022/03/13 06:12:05;;;;;;;29.33;18.58;;;10.50;99.90;;;;;;5043355;28;20067;-76
2022/03/13 06:14:31;;;;;;;27.17;18.98;;;10.50;99.90;;;;;;5048514;28;20021;-76
2022/03/13 06:16:56;;;;;;;26.85;16.08;;;10.50;99.90;;;;;;5040233;28;20049;-76
2022/03/13 06:19:22;;;;;;;26.90;17.42;;;10.40;99.90;;;;;;5032257;28;20033;-76
2022/03/13 06:21:48;;;;;;;27.83;18.42;;;10.30;99.90;;;;;;5045896;28;20021;-76
2022/03/13 06:24:16;;;;;;;27.35;19.00;;;10.40;99.90;;;;;;5033843;28;20037;-76
2022/03/13 06:26:41;;;;;;;25.38;16.13;;;10.40;99.90;;;;;;5044870;28;20018;-76
2022/03/13 06:29:07;;;;;;;23.60;17.00;;;10.40;99.90;;;;;;5040041;28;20029;-76
2022/03/13 06:31:33;;;;;;;24.70;16.38;;;10.40;99.90;;;;;;5033746;28;20021;-76
2022/03/13 06:33:58;;;;;;;26.30;17.08;;;10.40;99.90;;;;;;5045026;28;20489;-76
2022/03/13 06:36:24;;;;;;;27.02;17.08;;;10.40;99.90;;;;;;5029277;28;20021;-77
2022/03/13 06:38:50;;;;;;;28.50;17.33;;;10.40;99.90;;;;;;5034580;28;20080;-77
2022/03/13 06:41:18;;;;;;;25.65;16.70;;;10.50;99.90;;;;;;5044826;28;20381;-76
2022/03/13 06:43:44;;;;;;;25.05;16.13;;;10.40;99.90;;;;;;5046775;28;20025;-76
2022/03/13 06:46:10;;;;;;;22.83;16.08;;;10.50;99.90;;;;;;5041802;28;20044;-77
2022/03/13 06:48:35;;;;;;;24.25;15.73;;;10.50;99.90;;;;;;5042095;28;20033;-76
2022/03/13 06:51:01;;;;;;;27.40;16.65;;;10.50;99.90;;;;;;5032986;28;20021;-76
2022/03/13 06:53:28;;;;;;;26.52;16.55;;;10.40;99.90;;;;;;5029637;28;20025;-76
2022/03/13 06:55:54;;;;;;;24.58;17.25;;;10.40;99.90;;;;;;5040274;28;20374;-77
2022/03/13 06:58:20;;;;;;;21.02;16.38;;;10.40;99.90;;;;;;5045032;28;20023;-76
2022/03/13 07:00:47;;;;;;;26.30;15.63;;;10.40;99.90;;;;;;5030835;28;20034;-76
2022/03/13 07:03:13;;;;;;;24.52;18.23;;;10.40;99.90;;;;;;5037826;28;20072;-76
2022/03/13 07:05:40;;;;;;;26.17;17.20;;;10.30;99.90;;;;;;5041374;28;20116;-76
2022/03/13 07:08:06;;;;;;;25.23;17.25;;;10.30;99.90;;;;;;5035403;28;20063;-76
2022/03/13 07:10:32;;;;;;;33.10;16.08;;;10.40;99.90;;;;;;5035280;28;20057;-76
2022/03/13 07:12:59;;;;;;;23.52;15.77;;;10.50;99.90;;;;;;5045235;28;20417;-76
2022/03/13 07:15:26;;;;;;;26.88;17.15;;;10.50;99.90;;;;;;5042259;28;20421;-76
2022/03/13 07:17:53;;;;;;;23.63;16.30;;;10.50;99.90;;;;;;5052519;28;20017;-76
2022/03/13 07:20:19;;;;;;;24.13;16.55;;;10.50;99.90;;;;;;5043559;28;20039;-76
2022/03/13 07:22:46;;;;;;;21.75;15.50;;;10.60;99.90;;;;;;5035975;28;20481;-76
2022/03/13 07:25:12;;;;;;;27.75;16.35;;;10.60;99.90;;;;;;5045012;28;20025;-76
2022/03/13 07:27:38;;;;;;;24.70;16.00;;;10.60;99.90;;;;;;5044603;28;20072;-76
2022/03/13 07:30:06;;;;;;;25.27;17.20;;;10.60;99.90;;;;;;5042232;28;20021;-76
2022/03/13 07:32:32;;;;;;;27.20;16.88;;;10.70;99.90;;;;;;5040394;28;20029;-77
2022/03/13 07:34:57;;;;;;;24.60;16.55;;;10.60;99.90;;;;;;5040593;28;20033;-76
2022/03/13 07:37:23;;;;;;;31.08;18.35;;;10.60;99.90;;;;;;5035081;28;20033;-76
2022/03/13 07:39:49;;;;;;;23.67;17.63;;;10.50;99.90;;;;;;5035427;28;20112;-77
2022/03/13 07:42:16;;;;;;;22.20;15.80;;;10.70;99.90;;;;;;5038935;28;20040;-76
2022/03/13 07:44:42;;;;;;;27.52;17.58;;;10.60;99.90;;;;;;5049302;28;20021;-77
2022/03/13 07:47:08;;;;;;;27.15;16.38;;;10.70;99.90;;;;;;5041929;28;20047;-76
2022/03/13 07:49:34;;;;;;;27.25;17.58;;;10.60;99.90;;;;;;5043035;28;20029;-76
2022/03/13 07:52:00;;;;;;;21.90;16.13;;;10.70;99.90;;;;;;5041158;28;20017;-77
2022/03/13 07:54:26;;;;;;;26.20;18.27;;;10.80;99.90;;;;;;5032958;28;20033;-77
2022/03/13 07:56:51;;;;;;;27.92;16.63;;;10.70;99.90;;;;;;5030154;28;20481;-76
2022/03/13 07:59:17;;;;;;;25.98;16.83;;;10.80;99.90;;;;;;5039843;28;20033;-76
2022/03/13 08:01:43;;;;;;;25.38;16.90;;;10.80;99.90;;;;;;5027244;28;20018;-76
2022/03/13 08:04:08;;;;;;;24.38;17.55;;;10.90;99.90;;;;;;5045557;28;20029;-76
2022/03/13 08:06:35;;;;;;;29.20;19.52;;;11.00;99.90;;;;;;5032808;28;20440;-77
2022/03/13 08:09:05;;;;;;;25.58;16.50;;;11.00;99.90;;;;;;5033774;28;20381;-77
2022/03/13 08:11:34;;;;;;;25.75;17.17;;;11.10;99.90;;;;;;5032745;28;20393;-76
2022/03/13 08:14:03;;;;;;;24.13;17.02;;;11.10;99.90;;;;;;5029185;28;20496;-76
2022/03/13 08:16:29;;;;;;;26.20;17.52;;;11.20;99.90;;;;;;5030118;28;20030;-76
2022/03/13 08:18:56;;;;;;;23.25;16.67;;;11.20;99.90;;;;;;5041799;28;20075;-77
2022/03/13 08:21:21;;;;;;;23.52;16.00;;;11.40;99.90;;;;;;5036333;28;20033;-77
2022/03/13 08:23:47;;;;;;;23.50;16.33;;;11.40;99.90;;;;;;5031287;28;20045;-78
2022/03/13 08:26:13;;;;;;;23.80;16.30;;;11.50;99.90;;;;;;5034654;28;20030;-77
2022/03/13 08:28:42;;;;;;;21.05;14.85;;;11.50;99.90;;;;;;5028245;28;20083;-77
2022/03/13 08:31:08;;;;;;;23.45;15.73;;;11.60;99.90;;;;;;5041417;28;20064;-77
2022/03/13 08:33:34;;;;;;;24.90;17.10;;;11.70;99.90;;;;;;5026392;28;20129;-76
2022/03/13 08:36:00;;;;;;;24.80;17.05;;;11.80;99.90;;;;;;5036263;28;20528;-77
2022/03/13 08:38:25;;;;;;;24.25;16.95;;;11.80;99.90;;;;;;5028828;28;20033;-77
2022/03/13 08:40:51;;;;;;;22.88;15.63;;;11.80;99.90;;;;;;5027788;28;20029;-77
2022/03/13 08:43:17;;;;;;;23.77;15.77;;;11.90;99.90;;;;;;5031855;28;20347;-77
2022/03/13 08:45:42;;;;;;;26.98;15.77;;;12.00;99.90;;;;;;5041375;28;20108;-77
2022/03/13 08:48:08;;;;;;;30.73;18.65;;;12.20;99.90;;;;;;5037469;28;20489;-77
2022/03/13 08:50:34;;;;;;;25.92;16.70;;;12.30;99.90;;;;;;5035471;28;20025;-77
2022/03/13 08:53:01;;;;;;;25.63;16.25;;;12.50;99.90;;;;;;5033175;28;20036;-77
2022/03/13 08:55:27;;;;;;;22.35;16.20;;;12.60;99.90;;;;;;5041800;28;20025;-76
2022/03/13 08:57:52;;;;;;;20.95;14.95;;;12.60;99.90;;;;;;5027732;28;20033;-77
2022/03/13 09:00:19;;;;;;;22.02;16.35;;;12.70;99.90;;;;;;5036531;28;20021;-87
2022/03/13 09:02:45;;;;;;;23.27;17.23;;;12.80;99.90;;;;;;5040031;28;20080;-88
2022/03/13 09:05:11;;;;;;;24.77;16.33;;;13.00;99.90;;;;;;5033850;28;20032;-86
2022/03/13 09:07:37;;;;;;;25.35;16.52;;;13.00;99.90;;;;;;5038789;28;20044;-84
2022/03/13 09:10:07;;;;;;;23.25;16.70;;;13.10;99.90;;;;;;5038941;28;20417;-87
2022/03/13 09:12:33;;;;;;;25.75;16.85;;;13.20;99.90;;;;;;5031615;28;20028;-84
2022/03/13 09:15:00;;;;;;;27.60;17.48;;;13.40;99.90;;;;;;5049076;28;20025;-88
2022/03/13 09:17:26;;;;;;;25.92;18.13;;;13.30;99.90;;;;;;5030872;28;20026;-83
2022/03/13 09:19:52;;;;;;;24.30;16.75;;;13.40;99.90;;;;;;5037115;28;20131;-83
2022/03/13 09:22:18;;;;;;;25.70;16.23;;;13.50;99.90;;;;;;5038083;28;20041;-83
2022/03/13 09:24:45;;;;;;;25.00;16.17;;;13.60;99.90;;;;;;5029593;28;20022;-83
2022/03/13 09:27:12;;;;;;;23.98;16.20;;;13.60;99.90;;;;;;5038362;28;20060;-85
2022/03/13 09:29:37;;;;;;;24.00;16.10;;;13.70;99.90;;;;;;5037225;28;20056;-84
2022/03/13 09:32:04;;;;;;;25.65;18.25;;;13.80;99.90;;;;;;5052130;28;20540;-84
2022/03/13 09:34:31;;;;;;;29.45;18.15;;;14.00;99.90;;;;;;5047628;28;20064;-82
2022/03/13 09:36:57;;;;;;;22.35;17.58;;;14.00;99.90;;;;;;5039488;28;20021;-82
2022/03/13 09:39:23;;;;;;;27.20;18.15;;;14.20;99.90;;;;;;5035276;28;20056;-83
2022/03/13 09:41:49;;;;;;;24.65;17.33;;;14.50;99.90;;;;;;5032676;28;20374;-82
2022/03/13 09:44:14;;;;;;;24.23;17.60;;;14.70;99.90;;;;;;5037678;28;20531;-82
2022/03/13 09:46:40;;;;;;;23.50;16.00;;;14.80;99.90;;;;;;5035758;28;20376;-82
2022/03/13 09:49:05;;;;;;;24.73;18.30;;;14.80;99.90;;;;;;5024597;28;20033;-88
2022/03/13 09:51:31;;;;;;;22.95;16.65;;;14.90;99.90;;;;;;5032615;28;20021;-83
2022/03/13 09:53:58;;;;;;;23.95;14.80;;;15.00;99.90;;;;;;5042074;28;20155;-86
2022/03/13 09:56:24;;;;;;;21.08;16.38;;;15.00;99.90;;;;;;5032573;28;20033;-83
2022/03/13 09:58:49;;;;;;;23.40;17.00;;;15.10;99.90;;;;;;5037937;28;20021;-80
2022/03/13 10:01:15;;;;;;;24.98;17.63;;;15.20;99.90;;;;;;5022415;28;20028;-85
2022/03/13 10:03:41;;;;;;;24.27;18.15;;;15.20;99.90;;;;;;5044730;28;20389;-82
2022/03/13 10:06:07;;;;;;;20.92;15.13;;;15.50;99.90;;;;;;5040384;28;20044;-84
2022/03/13 10:08:33;;;;;;;21.10;16.48;;;15.70;99.90;;;;;;5026552;28;20529;-81
2022/03/13 10:11:00;;;;;;;25.63;16.38;;;15.80;99.90;;;;;;5036123;28;20029;-83
2022/03/13 10:13:33;;;;;;;24.50;18.90;;;15.80;99.90;;;;;;5024715;28;20457;-82
2022/03/13 10:15:59;;;;;;;22.02;16.00;;;15.90;99.90;;;;;;5039519;28;20024;-82
2022/03/13 10:18:26;;;;;;;25.40;16.02;;;16.00;99.90;;;;;;5041730;28;20469;-86
2022/03/13 10:20:53;;;;;;;24.90;17.90;;;15.90;99.90;;;;;;5042694;28;20382;-84
2022/03/13 10:23:20;;;;;;;24.77;17.75;;;15.80;99.90;;;;;;5031337;28;20227;-84
2022/03/13 10:25:48;;;;;;;23.27;16.08;;;15.90;99.80;;;;;;5036266;28;20105;-81
2022/03/13 10:28:31;;;;;;;20.30;14.98;;;16.00;99.80;;;;;;5022908;28;20445;-83
2022/03/13 10:31:00;;;;;;;19.13;14.98;;;16.30;99.90;;;;;;5037860;28;20029;-82
2022/03/13 10:33:27;;;;;;;23.88;16.00;;;16.50;99.60;;;;;;5029473;28;20037;-81
2022/03/13 10:36:08;;;;;;;20.00;15.25;;;16.50;98.90;;;;;;5033186;28;20029;-87
2022/03/13 10:38:35;;;;;;;20.45;15.05;;;16.70;99.60;;;;;;5027043;28;20035;-87
2022/03/13 10:41:01;;;;;;;21.02;14.38;;;16.80;99.40;;;;;;5032646;28;20033;-86
2022/03/13 10:43:29;;;;;;;22.23;15.85;;;16.90;98.90;;;;;;5033812;28;20033;-81
2022/03/13 10:45:56;;;;;;;18.55;14.45;;;17.00;98.60;;;;;;5032008;28;20021;-82
2022/03/13 10:48:33;;;;;;;19.67;13.68;;;17.30;99.90;;;;;;5039346;28;20029;-83
2022/03/13 10:51:08;;;;;;;18.40;14.13;;;17.30;98.70;;;;;;5026816;28;20022;-82
2022/03/13 10:53:38;;;;;;;17.52;13.30;;;17.30;99.10;;;;;;5039481;28;20029;-84
2022/03/13 10:56:09;;;;;;;14.13;11.30;;;17.40;98.20;;;;;;5037676;28;20029;-83
2022/03/13 10:58:39;;;;;;;14.85;11.40;;;17.50;97.80;;;;;;5035619;28;20127;-83
2022/03/13 11:01:10;;;;;;;14.02;10.15;;;17.50;97.40;;;;;;5034124;28;20032;-83
2022/03/13 11:03:57;;;;;;;8.27;6.97;;;17.60;97.10;;;;;;5038653;28;20394;-83
2022/03/13 11:06:26;;;;;;;7.60;5.40;;;17.70;96.00;;;;;;5034144;28;20375;-84
2022/03/13 11:08:53;;;;;;;8.57;5.63;;;17.70;96.70;;;;;;5046264;28;20028;-81
2022/03/13 11:11:20;;;;;;;5.97;5.38;;;18.00;96.90;;;;;;5044912;28;20030;-83
2022/03/13 11:13:56;;;;;;;5.97;5.00;;;18.00;96.50;;;;;;5053512;28;20017;-83
2022/03/13 11:16:26;;;;;;;7.35;4.53;;;18.30;95.70;;;;;;5032521;28;20044;-84
2022/03/13 11:18:55;;;;;;;5.07;4.57;;;18.20;94.80;;;;;;5042637;28;20021;-82
2022/03/13 11:21:22;;;;;;;6.53;5.40;;;18.20;95.80;;;;;;5044336;28;20147;-82
2022/03/13 11:23:49;;;;;;;7.18;5.70;;;18.30;97.30;;;;;;5029792;28;20130;-85
2022/03/13 11:26:17;;;;;;;7.30;4.57;;;18.30;95.80;;;;;;5036899;28;20010;-83
2022/03/13 11:28:45;;;;;;;4.82;4.32;;;18.40;95.60;;;;;;5045063;28;20017;-85
2022/03/13 11:31:42;;;;;;;6.30;4.78;;;18.40;95.20;;;;;;5033142;28;20033;-83
2022/03/13 11:34:16;;;;;;;3.97;3.58;;;18.40;94.20;;;;;;5044603;28;20049;-82
2022/03/13 11:36:45;;;;;;;3.83;3.40;;;18.60;94.70;;;;;;5037809;28;20014;-85
2022/03/13 11:39:15;;;;;;;4.65;3.17;;;18.60;94.60;;;;;;5041742;28;20068;-82
2022/03/13 11:41:46;;;;;;;4.13;3.40;;;18.50;93.00;;;;;;5050577;28;20029;-86
2022/03/13 11:44:23;;;;;;;5.43;3.67;;;18.50;94.10;;;;;;5029267;28;20390;-85
2022/03/13 11:46:51;;;;;;;4.18;3.75;;;18.50;93.10;;;;;;5026626;28;20601;-83
2022/03/13 11:49:37;;;;;;;4.63;4.03;;;18.60;94.00;;;;;;5034363;28;20486;-82
2022/03/13 11:52:16;;;;;;;5.22;4.03;;;18.70;95.30;;;;;;5045247;28;20025;-83
2022/03/13 11:54:45;;;;;;;5.10;4.60;;;18.60;92.70;;;;;;5039036;28;20020;-82
2022/03/13 11:57:15;;;;;;;4.82;4.30;;;18.50;92.60;;;;;;5044937;28;20022;-83
2022/03/13 11:59:40;;;;;;;6.57;5.03;;;18.40;92.70;;;;;;5043728;28;20029;-81
2022/03/13 12:02:12;;;;;;;5.45;4.93;;;18.50;94.50;;;;;;5028485;28;20040;-82
2022/03/13 12:04:38;;;;;;;5.38;4.88;;;18.60;92.20;;;;;;5039091;28;20117;-84
2022/03/13 12:07:27;;;;;;;5.18;4.72;;;18.70;94.10;;;;;;5034990;28;20101;-81
2022/03/13 12:09:53;;;;;;;5.32;4.70;;;18.50;92.50;;;;;;5035765;28;20017;-81
2022/03/13 12:12:18;;;;;;;6.75;4.85;;;18.60;94.30;;;;;;5038236;28;20071;-81
2022/03/13 12:15:05;;;;;;;5.65;5.05;;;18.50;92.60;;;;;;5040894;28;20118;-83
2022/03/13 12:17:51;;;;;;;7.70;5.53;;;18.40;92.00;;;;;;5042222;28;20037;-81
2022/03/13 12:20:24;;;;;;;5.63;4.90;;;18.50;93.30;;;;;;5033512;28;20052;-82
2022/03/13 12:22:53;;;;;;;5.85;4.38;;;18.60;93.40;;;;;;5033724;28;20069;-81
2022/03/13 12:25:27;;;;;;;5.93;3.97;;;18.70;94.00;;;;;;5043925;28;20029;-84
2022/03/13 12:27:57;;;;;;;4.60;4.20;;;18.60;93.80;;;;;;5026192;28;20030;-82
2022/03/13 12:30:26;;;;;;;5.95;5.32;;;18.70;92.10;;;;;;5033544;28;20039;-85